Hauptseite
METAR-TAF:

METAR-TAF

Flughäfen :

Flughafen Kerry

Killarney, Irland

Breite: 52-10-51N, Länge: 9-31-26W, Höhe: 34 m

Beobachtung

Neuester Wetterbericht von vor 22 Minuten, um 15:30 UTC
Wind 7 kt aus Süd/Südost, variierte zwischen Ost/Südost und Süd
Temperatur 14°C
Luftfeuchtigkeit 55%
Luftdruck 1012 hPa
Sichtweite 10 km oder mehr
keine Wolken unter 1500 m und keine Kumulonimbus oder Gewitterwolken

METAR: EIKY 151530Z 15007KT 110V170 CAVOK 14/05 Q1012

Zeit: 16:52 (15:52 UTC)

Prognose

Neuester Wetterbericht von vor 1 Stunde und 52 Minuten, um 14:00 UTC
Gültige Prognose vom 15 um 15 UTC bis 15 um 21 UTC
Wind 7 kt aus Südost
Sichtweite 10 km oder mehr
Leicht bewölkt in der Höhe von 2500 ft
Aufgelockert bewölkt in der Höhe von 4000 ft
Übergehend zu
vom 15 um 18 UTC bis 15 um 21 UTC
Wind 12 kt aus Süd/Südost

TAF: EIKY 151400Z 1515/1521 14007KT 9999 FEW025 SCT040 BECMG 1518/1521 16012KT

Wetterbeobachtungen und Prognosen von mehr als 4000 Flughäfen (METAR und TAF Bericht).

Die verfügbaren Stationen werden durch gelbe und rote Markierungen auf der Karte dargestellt.

Führen Sie die Maus auf sie, um den Namen der Station zu sehen.

Darauf klicken, um die Beobachtung von Wetterbeobachtungen und Prognosen zu sehen.

Um die Karte zu ändern : klicken Sie auf den grünen Tasten mit einem schwarzen Kreuz Zum Vergrößern, auf den grünen Button mit einem Gedankenstrich zu verkleinern, oder auf die grünen Pfeile für benachbarte Karten.


METAR-TAF: